sensor_id;sensor_type;location;lat;lon;timestamp;temperature;humidity
35746;DHT22;21870;42.812;74.628;2022-12-24T00:00:57;-7.20;99.90
35746;DHT22;21870;42.812;74.628;2022-12-24T00:03:23;-7.10;99.90
35746;DHT22;21870;42.812;74.628;2022-12-24T00:05:49;-7.00;99.90
35746;DHT22;21870;42.812;74.628;2022-12-24T00:08:15;-7.10;99.90
35746;DHT22;21870;42.812;74.628;2022-12-24T00:10:41;-7.10;99.90
35746;DHT22;21870;42.812;74.628;2022-12-24T00:13:08;-7.20;99.90
35746;DHT22;21870;42.812;74.628;2022-12-24T00:15:34;-7.30;99.90
35746;DHT22;21870;42.812;74.628;2022-12-24T00:18:00;-7.30;99.90
35746;DHT22;21870;42.812;74.628;2022-12-24T00:20:26;-7.30;99.90
35746;DHT22;21870;42.812;74.628;2022-12-24T00:22:53;-7.30;99.90
35746;DHT22;21870;42.812;74.628;2022-12-24T00:25:19;-7.20;99.90
35746;DHT22;21870;42.812;74.628;2022-12-24T00:27:45;-7.20;99.90
35746;DHT22;21870;42.812;74.628;2022-12-24T00:30:11;-7.30;99.90
35746;DHT22;21870;42.812;74.628;2022-12-24T00:32:37;-7.20;99.90
35746;DHT22;21870;42.812;74.628;2022-12-24T00:35:03;-7.30;99.90
35746;DHT22;21870;42.812;74.628;2022-12-24T00:37:30;-7.30;99.90
35746;DHT22;21870;42.812;74.628;2022-12-24T00:39:56;-7.30;99.90
35746;DHT22;21870;42.812;74.628;2022-12-24T00:42:22;-7.30;99.90
35746;DHT22;21870;42.812;74.628;2022-12-24T00:44:48;-7.20;99.90
35746;DHT22;21870;42.812;74.628;2022-12-24T00:47:14;-7.10;99.90
35746;DHT22;21870;42.812;74.628;2022-12-24T00:49:40;-7.10;99.90
35746;DHT22;21870;42.812;74.628;2022-12-24T00:52:06;-7.20;99.90
35746;DHT22;21870;42.812;74.628;2022-12-24T00:54:32;-7.10;99.90
35746;DHT22;21870;42.812;74.628;2022-12-24T00:56:58;-7.10;99.90
35746;DHT22;21870;42.812;74.628;2022-12-24T00:59:24;-7.20;99.90
35746;DHT22;21870;42.812;74.628;2022-12-24T01:01:50;-7.30;99.90
35746;DHT22;21870;42.812;74.628;2022-12-24T01:04:16;-7.20;99.90
35746;DHT22;21870;42.812;74.628;2022-12-24T01:07:01;-7.10;99.90
35746;DHT22;21870;42.812;74.628;2022-12-24T01:09:27;-7.10;99.90
35746;DHT22;21870;42.812;74.628;2022-12-24T01:11:53;-7.10;99.90
35746;DHT22;21870;42.812;74.628;2022-12-24T01:14:19;-7.10;99.90
35746;DHT22;21870;42.812;74.628;2022-12-24T01:16:45;-7.10;99.90
35746;DHT22;21870;42.812;74.628;2022-12-24T01:19:11;-7.20;99.90
35746;DHT22;21870;42.812;74.628;2022-12-24T01:21:38;-7.30;99.90
35746;DHT22;21870;42.812;74.628;2022-12-24T01:24:04;-7.30;99.90
35746;DHT22;21870;42.812;74.628;2022-12-24T01:26:30;-7.30;99.90
35746;DHT22;21870;42.812;74.628;2022-12-24T01:28:56;-7.30;99.90
35746;DHT22;21870;42.812;74.628;2022-12-24T01:31:22;-7.20;99.90
35746;DHT22;21870;42.812;74.628;2022-12-24T01:33:48;-7.20;99.90
35746;DHT22;21870;42.812;74.628;2022-12-24T01:36:15;-7.40;99.90
35746;DHT22;21870;42.812;74.628;2022-12-24T01:38:41;-7.30;99.90
35746;DHT22;21870;42.812;74.628;2022-12-24T01:41:14;-7.30;99.90
35746;DHT22;21870;42.812;74.628;2022-12-24T01:44:23;-7.20;99.90
35746;DHT22;21870;42.812;74.628;2022-12-24T01:49:41;-7.30;99.90
35746;DHT22;21870;42.812;74.628;2022-12-24T01:52:18;-7.30;99.90
35746;DHT22;21870;42.812;74.628;2022-12-24T01:54:51;-7.30;99.90
35746;DHT22;21870;42.812;74.628;2022-12-24T01:57:26;-7.50;99.90
35746;DHT22;21870;42.812;74.628;2022-12-24T01:59:56;-7.60;99.90
35746;DHT22;21870;42.812;74.628;2022-12-24T02:02:24;-7.50;99.90
35746;DHT22;21870;42.812;74.628;2022-12-24T02:07:29;-7.30;99.90
35746;DHT22;21870;42.812;74.628;2022-12-24T02:10:00;-7.30;99.90
35746;DHT22;21870;42.812;74.628;2022-12-24T02:12:28;-7.20;99.90
35746;DHT22;21870;42.812;74.628;2022-12-24T02:14:55;-7.10;99.90
35746;DHT22;21870;42.812;74.628;2022-12-24T02:17:34;-7.10;99.90
35746;DHT22;21870;42.812;74.628;2022-12-24T02:26:01;-7.20;99.90
35746;DHT22;21870;42.812;74.628;2022-12-24T02:31:39;-7.20;99.90
35746;DHT22;21870;42.812;74.628;2022-12-24T02:34:08;-7.20;99.90
35746;DHT22;21870;42.812;74.628;2022-12-24T02:36:47;-7.20;99.90
35746;DHT22;21870;42.812;74.628;2022-12-24T02:39:26;-7.10;99.90
35746;DHT22;21870;42.812;74.628;2022-12-24T02:41:56;-7.00;99.90
35746;DHT22;21870;42.812;74.628;2022-12-24T02:44:54;-7.10;99.90
35746;DHT22;21870;42.812;74.628;2022-12-24T02:47:24;-7.00;99.90
35746;DHT22;21870;42.812;74.628;2022-12-24T02:49:51;-7.10;99.90
35746;DHT22;21870;42.812;74.628;2022-12-24T02:52:33;-7.30;99.90
35746;DHT22;21870;42.812;74.628;2022-12-24T02:57:49;-7.30;99.90
35746;DHT22;21870;42.812;74.628;2022-12-24T03:00:20;-7.20;99.90
35746;DHT22;21870;42.812;74.628;2022-12-24T03:08:18;-6.80;99.90
35746;DHT22;21870;42.812;74.628;2022-12-24T03:10:59;-6.60;99.90
35746;DHT22;21870;42.812;74.628;2022-12-24T03:13:27;-6.40;99.90
35746;DHT22;21870;42.812;74.628;2022-12-24T03:15:54;-6.40;99.90
35746;DHT22;21870;42.812;74.628;2022-12-24T03:18:24;-6.30;99.90
35746;DHT22;21870;42.812;74.628;2022-12-24T03:21:30;-6.20;99.90
35746;DHT22;21870;42.812;74.628;2022-12-24T03:23:58;-6.00;99.90
35746;DHT22;21870;42.812;74.628;2022-12-24T03:26:25;-5.90;99.90
35746;DHT22;21870;42.812;74.628;2022-12-24T03:28:51;-5.90;99.90
35746;DHT22;21870;42.812;74.628;2022-12-24T03:31:18;-5.60;99.90
35746;DHT22;21870;42.812;74.628;2022-12-24T03:33:44;-5.30;99.90
35746;DHT22;21870;42.812;74.628;2022-12-24T03:36:11;-5.00;99.90
35746;DHT22;21870;42.812;74.628;2022-12-24T03:38:37;-4.70;99.90
35746;DHT22;21870;42.812;74.628;2022-12-24T03:41:03;-4.40;99.90
35746;DHT22;21870;42.812;74.628;2022-12-24T03:43:30;-4.10;99.90
35746;DHT22;21870;42.812;74.628;2022-12-24T03:45:56;-3.80;99.90
35746;DHT22;21870;42.812;74.628;2022-12-24T03:48:22;-3.60;99.90
35746;DHT22;21870;42.812;74.628;2022-12-24T03:50:48;-3.40;99.90
35746;DHT22;21870;42.812;74.628;2022-12-24T03:53:15;-3.20;99.90
35746;DHT22;21870;42.812;74.628;2022-12-24T03:55:41;-3.10;99.90
35746;DHT22;21870;42.812;74.628;2022-12-24T03:58:07;-2.80;99.90
35746;DHT22;21870;42.812;74.628;2022-12-24T04:00:33;-2.60;99.90
35746;DHT22;21870;42.812;74.628;2022-12-24T04:02:59;-2.30;99.90
35746;DHT22;21870;42.812;74.628;2022-12-24T04:05:25;-2.00;99.90
35746;DHT22;21870;42.812;74.628;2022-12-24T04:07:51;-1.80;99.90
35746;DHT22;21870;42.812;74.628;2022-12-24T04:10:17;-1.50;99.90
35746;DHT22;21870;42.812;74.628;2022-12-24T04:12:43;-1.20;99.90
35746;DHT22;21870;42.812;74.628;2022-12-24T04:15:10;-1.00;99.90
35746;DHT22;21870;42.812;74.628;2022-12-24T04:17:36;-0.80;99.90
35746;DHT22;21870;42.812;74.628;2022-12-24T04:20:02;-0.70;99.90
35746;DHT22;21870;42.812;74.628;2022-12-24T04:22:28;-0.60;99.90
35746;DHT22;21870;42.812;74.628;2022-12-24T04:24:54;-0.40;99.90
35746;DHT22;21870;42.812;74.628;2022-12-24T04:27:20;-0.30;99.90
35746;DHT22;21870;42.812;74.628;2022-12-24T04:29:47;-0.10;99.90
35746;DHT22;21870;42.812;74.628;2022-12-24T04:32:13;0.00;99.90
35746;DHT22;21870;42.812;74.628;2022-12-24T04:34:39;0.10;99.90
35746;DHT22;21870;42.812;74.628;2022-12-24T04:37:05;0.00;99.90
35746;DHT22;21870;42.812;74.628;2022-12-24T04:39:31;0.00;99.90
35746;DHT22;21870;42.812;74.628;2022-12-24T04:42:01;0.10;99.90
35746;DHT22;21870;42.812;74.628;2022-12-24T04:44:27;0.30;99.90
35746;DHT22;21870;42.812;74.628;2022-12-24T04:46:53;0.30;99.90
35746;DHT22;21870;42.812;74.628;2022-12-24T04:49:19;0.40;99.90
35746;DHT22;21870;42.812;74.628;2022-12-24T04:51:45;0.70;99.90
35746;DHT22;21870;42.812;74.628;2022-12-24T04:54:11;0.80;99.90
35746;DHT22;21870;42.812;74.628;2022-12-24T04:56:37;1.10;99.90
35746;DHT22;21870;42.812;74.628;2022-12-24T04:59:03;1.20;99.90
35746;DHT22;21870;42.812;74.628;2022-12-24T05:01:30;1.30;99.90
35746;DHT22;21870;42.812;74.628;2022-12-24T05:03:57;1.40;99.90
35746;DHT22;21870;42.812;74.628;2022-12-24T05:06:27;1.70;99.90
35746;DHT22;21870;42.812;74.628;2022-12-24T05:08:55;2.00;99.90
35746;DHT22;21870;42.812;74.628;2022-12-24T05:11:21;2.10;99.90
35746;DHT22;21870;42.812;74.628;2022-12-24T05:13:48;2.30;99.90
35746;DHT22;21870;42.812;74.628;2022-12-24T05:16:15;2.50;99.90
35746;DHT22;21870;42.812;74.628;2022-12-24T05:18:42;2.70;99.90
35746;DHT22;21870;42.812;74.628;2022-12-24T05:21:10;2.80;99.90
35746;DHT22;21870;42.812;74.628;2022-12-24T05:23:38;3.00;99.90
35746;DHT22;21870;42.812;74.628;2022-12-24T05:28:58;3.40;99.90
35746;DHT22;21870;42.812;74.628;2022-12-24T05:31:26;3.60;99.90
35746;DHT22;21870;42.812;74.628;2022-12-24T05:33:53;3.80;99.90
35746;DHT22;21870;42.812;74.628;2022-12-24T05:36:20;4.10;99.90
35746;DHT22;21870;42.812;74.628;2022-12-24T05:38:46;4.10;99.90
35746;DHT22;21870;42.812;74.628;2022-12-24T05:41:12;4.40;99.90
35746;DHT22;21870;42.812;74.628;2022-12-24T05:43:39;4.60;99.90
35746;DHT22;21870;42.812;74.628;2022-12-24T05:46:07;4.80;99.90
35746;DHT22;21870;42.812;74.628;2022-12-24T05:48:34;4.90;99.90
35746;DHT22;21870;42.812;74.628;2022-12-24T05:51:04;5.10;99.90
35746;DHT22;21870;42.812;74.628;2022-12-24T05:53:31;5.30;99.90
35746;DHT22;21870;42.812;74.628;2022-12-24T05:56:05;5.40;99.90
35746;DHT22;21870;42.812;74.628;2022-12-24T05:58:32;5.50;99.90
35746;DHT22;21870;42.812;74.628;2022-12-24T06:00:59;5.60;99.90
35746;DHT22;21870;42.812;74.628;2022-12-24T06:03:25;5.50;99.90
35746;DHT22;21870;42.812;74.628;2022-12-24T06:05:59;5.60;99.90
35746;DHT22;21870;42.812;74.628;2022-12-24T06:08:26;5.80;99.90
35746;DHT22;21870;42.812;74.628;2022-12-24T06:10:57;5.80;99.90
35746;DHT22;21870;42.812;74.628;2022-12-24T06:13:24;6.10;99.90
35746;DHT22;21870;42.812;74.628;2022-12-24T06:15:53;6.20;99.90
35746;DHT22;21870;42.812;74.628;2022-12-24T06:18:20;6.40;99.90
35746;DHT22;21870;42.812;74.628;2022-12-24T06:20:52;6.40;99.90
35746;DHT22;21870;42.812;74.628;2022-12-24T06:23:19;6.40;99.90
35746;DHT22;21870;42.812;74.628;2022-12-24T06:25:46;6.40;99.90
35746;DHT22;21870;42.812;74.628;2022-12-24T06:28:12;6.60;99.90
35746;DHT22;21870;42.812;74.628;2022-12-24T06:30:38;6.60;99.90
35746;DHT22;21870;42.812;74.628;2022-12-24T06:33:04;6.70;99.90
35746;DHT22;21870;42.812;74.628;2022-12-24T06:35:31;6.80;99.90
35746;DHT22;21870;42.812;74.628;2022-12-24T06:37:58;6.70;99.90
35746;DHT22;21870;42.812;74.628;2022-12-24T06:40:25;6.60;99.90
35746;DHT22;21870;42.812;74.628;2022-12-24T06:42:51;6.70;99.90
35746;DHT22;21870;42.812;74.628;2022-12-24T06:45:17;6.70;99.90
35746;DHT22;21870;42.812;74.628;2022-12-24T06:47:43;6.80;99.90
35746;DHT22;21870;42.812;74.628;2022-12-24T06:50:09;6.90;99.90
35746;DHT22;21870;42.812;74.628;2022-12-24T06:52:36;7.00;99.90
35746;DHT22;21870;42.812;74.628;2022-12-24T06:55:03;6.90;99.90
35746;DHT22;21870;42.812;74.628;2022-12-24T06:57:29;7.10;99.90
35746;DHT22;21870;42.812;74.628;2022-12-24T06:59:57;7.00;99.90
35746;DHT22;21870;42.812;74.628;2022-12-24T07:02:23;7.10;99.90
35746;DHT22;21870;42.812;74.628;2022-12-24T07:04:52;6.90;99.90
35746;DHT22;21870;42.812;74.628;2022-12-24T07:07:18;7.00;99.90
35746;DHT22;21870;42.812;74.628;2022-12-24T07:09:44;7.00;99.90
35746;DHT22;21870;42.812;74.628;2022-12-24T07:12:10;7.10;99.90
35746;DHT22;21870;42.812;74.628;2022-12-24T07:14:36;7.10;99.90
35746;DHT22;21870;42.812;74.628;2022-12-24T07:17:02;7.20;99.90
35746;DHT22;21870;42.812;74.628;2022-12-24T07:19:29;7.10;99.90
35746;DHT22;21870;42.812;74.628;2022-12-24T07:21:55;7.00;99.90
35746;DHT22;21870;42.812;74.628;2022-12-24T07:24:21;7.10;99.90
35746;DHT22;21870;42.812;74.628;2022-12-24T07:26:47;7.20;99.90
35746;DHT22;21870;42.812;74.628;2022-12-24T07:29:13;7.20;99.90
35746;DHT22;21870;42.812;74.628;2022-12-24T07:31:39;7.10;99.90
35746;DHT22;21870;42.812;74.628;2022-12-24T07:34:05;7.10;99.90
35746;DHT22;21870;42.812;74.628;2022-12-24T07:36:31;7.20;99.90
35746;DHT22;21870;42.812;74.628;2022-12-24T07:38:57;7.20;99.90
35746;DHT22;21870;42.812;74.628;2022-12-24T07:41:23;7.30;99.90
35746;DHT22;21870;42.812;74.628;2022-12-24T07:43:49;7.30;99.90
35746;DHT22;21870;42.812;74.628;2022-12-24T07:46:15;7.10;99.90
35746;DHT22;21870;42.812;74.628;2022-12-24T07:48:41;7.20;99.90
35746;DHT22;21870;42.812;74.628;2022-12-24T07:51:07;7.30;99.90
35746;DHT22;21870;42.812;74.628;2022-12-24T07:53:34;7.40;99.90
35746;DHT22;21870;42.812;74.628;2022-12-24T07:56:00;7.40;99.90
35746;DHT22;21870;42.812;74.628;2022-12-24T07:58:26;7.50;99.90
35746;DHT22;21870;42.812;74.628;2022-12-24T08:00:57;7.50;99.90
35746;DHT22;21870;42.812;74.628;2022-12-24T08:03:24;7.60;99.90
35746;DHT22;21870;42.812;74.628;2022-12-24T08:05:50;7.60;99.90
35746;DHT22;21870;42.812;74.628;2022-12-24T08:08:17;7.60;99.90
35746;DHT22;21870;42.812;74.628;2022-12-24T08:10:45;7.70;99.90
35746;DHT22;21870;42.812;74.628;2022-12-24T08:13:12;8.00;99.90
35746;DHT22;21870;42.812;74.628;2022-12-24T08:15:38;8.00;99.90
35746;DHT22;21870;42.812;74.628;2022-12-24T08:18:04;8.00;99.90
35746;DHT22;21870;42.812;74.628;2022-12-24T08:20:30;8.10;99.90
35746;DHT22;21870;42.812;74.628;2022-12-24T08:22:56;8.20;99.90
35746;DHT22;21870;42.812;74.628;2022-12-24T08:25:22;8.20;99.90
35746;DHT22;21870;42.812;74.628;2022-12-24T08:27:48;8.30;99.90
35746;DHT22;21870;42.812;74.628;2022-12-24T08:30:15;8.20;99.90
35746;DHT22;21870;42.812;74.628;2022-12-24T08:32:41;8.10;99.90
35746;DHT22;21870;42.812;74.628;2022-12-24T08:35:07;8.20;99.90
35746;DHT22;21870;42.812;74.628;2022-12-24T08:37:33;8.10;99.90
35746;DHT22;21870;42.812;74.628;2022-12-24T08:39:59;8.10;99.90
35746;DHT22;21870;42.812;74.628;2022-12-24T08:42:25;7.90;99.90
35746;DHT22;21870;42.812;74.628;2022-12-24T08:44:52;8.00;99.90
35746;DHT22;21870;42.812;74.628;2022-12-24T08:47:18;8.00;99.90
35746;DHT22;21870;42.812;74.628;2022-12-24T08:49:44;8.00;99.90
35746;DHT22;21870;42.812;74.628;2022-12-24T08:52:10;8.00;99.90
35746;DHT22;21870;42.812;74.628;2022-12-24T08:54:36;8.10;99.90
35746;DHT22;21870;42.812;74.628;2022-12-24T08:57:02;8.00;99.90
35746;DHT22;21870;42.812;74.628;2022-12-24T08:59:28;7.80;99.90
35746;DHT22;21870;42.812;74.628;2022-12-24T09:01:54;7.80;99.90
35746;DHT22;21870;42.812;74.628;2022-12-24T09:04:20;7.70;99.90
35746;DHT22;21870;42.812;74.628;2022-12-24T09:06:46;7.60;99.90
35746;DHT22;21870;42.812;74.628;2022-12-24T09:09:12;7.50;99.90
35746;DHT22;21870;42.812;74.628;2022-12-24T09:11:38;7.50;99.90
35746;DHT22;21870;42.812;74.628;2022-12-24T09:14:04;7.40;99.90
35746;DHT22;21870;42.812;74.628;2022-12-24T09:16:30;7.50;99.90
35746;DHT22;21870;42.812;74.628;2022-12-24T09:18:57;7.30;99.90
35746;DHT22;21870;42.812;74.628;2022-12-24T09:21:26;7.20;99.90
35746;DHT22;21870;42.812;74.628;2022-12-24T09:23:52;7.20;99.90
35746;DHT22;21870;42.812;74.628;2022-12-24T09:26:24;7.00;99.90
35746;DHT22;21870;42.812;74.628;2022-12-24T09:28:52;6.90;99.90
35746;DHT22;21870;42.812;74.628;2022-12-24T09:31:18;6.60;99.90
35746;DHT22;21870;42.812;74.628;2022-12-24T09:33:46;6.60;99.90
35746;DHT22;21870;42.812;74.628;2022-12-24T09:36:13;6.50;99.90
35746;DHT22;21870;42.812;74.628;2022-12-24T09:38:39;6.50;99.90
35746;DHT22;21870;42.812;74.628;2022-12-24T09:43:54;6.30;99.90
35746;DHT22;21870;42.812;74.628;2022-12-24T09:46:28;6.00;99.90
35746;DHT22;21870;42.812;74.628;2022-12-24T09:49:02;5.90;99.90
35746;DHT22;21870;42.812;74.628;2022-12-24T09:51:43;5.70;99.90
35746;DHT22;21870;42.812;74.628;2022-12-24T09:54:29;5.50;99.90
35746;DHT22;21870;42.812;74.628;2022-12-24T09:56:59;5.40;99.90
35746;DHT22;21870;42.812;74.628;2022-12-24T09:59:38;5.30;99.90
35746;DHT22;21870;42.812;74.628;2022-12-24T10:02:10;5.10;99.90
35746;DHT22;21870;42.812;74.628;2022-12-24T10:04:37;4.90;99.90
35746;DHT22;21870;42.812;74.628;2022-12-24T10:07:30;4.70;99.90
35746;DHT22;21870;42.812;74.628;2022-12-24T10:23:30;4.20;99.90
35746;DHT22;21870;42.812;74.628;2022-12-24T10:28:57;4.00;99.90
35746;DHT22;21870;42.812;74.628;2022-12-24T10:31:28;3.80;99.90
35746;DHT22;21870;42.812;74.628;2022-12-24T10:33:58;3.70;99.90
35746;DHT22;21870;42.812;74.628;2022-12-24T10:36:28;3.50;99.90
35746;DHT22;21870;42.812;74.628;2022-12-24T10:38:54;3.30;99.90
35746;DHT22;21870;42.812;74.628;2022-12-24T10:41:21;3.20;99.90
35746;DHT22;21870;42.812;74.628;2022-12-24T10:43:48;3.10;99.90
35746;DHT22;21870;42.812;74.628;2022-12-24T10:46:21;2.90;99.90
35746;DHT22;21870;42.812;74.628;2022-12-24T10:48:54;2.80;99.90
35746;DHT22;21870;42.812;74.628;2022-12-24T10:54:19;2.50;99.90
35746;DHT22;21870;42.812;74.628;2022-12-24T10:57:05;2.30;99.90
35746;DHT22;21870;42.812;74.628;2022-12-24T11:00:20;2.10;99.90
35746;DHT22;21870;42.812;74.628;2022-12-24T11:02:47;1.90;99.90
35746;DHT22;21870;42.812;74.628;2022-12-24T11:05:32;1.70;99.90
35746;DHT22;21870;42.812;74.628;2022-12-24T11:08:01;1.50;99.90
35746;DHT22;21870;42.812;74.628;2022-12-24T11:10:27;1.30;99.90
35746;DHT22;21870;42.812;74.628;2022-12-24T11:12:57;1.20;99.90
35746;DHT22;21870;42.812;74.628;2022-12-24T11:15:30;1.10;99.90
35746;DHT22;21870;42.812;74.628;2022-12-24T11:18:02;1.00;99.90
35746;DHT22;21870;42.812;74.628;2022-12-24T11:20:31;0.80;99.90
35746;DHT22;21870;42.812;74.628;2022-12-24T11:22:59;0.70;99.90
35746;DHT22;21870;42.812;74.628;2022-12-24T11:25:31;0.50;99.90
35746;DHT22;21870;42.812;74.628;2022-12-24T11:28:20;0.50;99.90
35746;DHT22;21870;42.812;74.628;2022-12-24T11:33:24;0.30;99.90
35746;DHT22;21870;42.812;74.628;2022-12-24T11:35:53;0.30;99.90
35746;DHT22;21870;42.812;74.628;2022-12-24T11:38:23;0.20;99.90
35746;DHT22;21870;42.812;74.628;2022-12-24T11:41:00;0.10;99.90
35746;DHT22;21870;42.812;74.628;2022-12-24T11:43:37;0.10;99.90
35746;DHT22;21870;42.812;74.628;2022-12-24T11:48:45;-0.10;99.90
35746;DHT22;21870;42.812;74.628;2022-12-24T11:51:26;-0.20;99.90
35746;DHT22;21870;42.812;74.628;2022-12-24T11:57:01;-0.50;99.90
35746;DHT22;21870;42.812;74.628;2022-12-24T11:59:36;-0.80;99.90
35746;DHT22;21870;42.812;74.628;2022-12-24T12:02:25;-0.80;99.90
35746;DHT22;21870;42.812;74.628;2022-12-24T12:05:37;-0.90;99.90
35746;DHT22;21870;42.812;74.628;2022-12-24T12:07:46;-0.90;99.90
35746;DHT22;21870;42.812;74.628;2022-12-24T12:10:24;-0.90;99.90
35746;DHT22;21870;42.812;74.628;2022-12-24T12:13:19;-1.00;99.90
35746;DHT22;21870;42.812;74.628;2022-12-24T12:15:52;-1.10;99.90
35746;DHT22;21870;42.812;74.628;2022-12-24T12:18:27;-1.20;99.90
35746;DHT22;21870;42.812;74.628;2022-12-24T12:21:02;-1.30;99.90
35746;DHT22;21870;42.812;74.628;2022-12-24T12:23:46;-1.30;99.90
35746;DHT22;21870;42.812;74.628;2022-12-24T12:26:23;-1.40;99.90
35746;DHT22;21870;42.812;74.628;2022-12-24T12:29:29;-1.40;99.90
35746;DHT22;21870;42.812;74.628;2022-12-24T12:31:50;-1.50;99.90
35746;DHT22;21870;42.812;74.628;2022-12-24T12:34:35;-1.50;99.90
35746;DHT22;21870;42.812;74.628;2022-12-24T12:37:30;-1.50;99.90
35746;DHT22;21870;42.812;74.628;2022-12-24T12:39:57;-1.50;99.90
35746;DHT22;21870;42.812;74.628;2022-12-24T12:42:30;-1.60;99.90
35746;DHT22;21870;42.812;74.628;2022-12-24T12:48:39;-1.70;99.90
35746;DHT22;21870;42.812;74.628;2022-12-24T12:51:24;-1.90;99.90
35746;DHT22;21870;42.812;74.628;2022-12-24T12:54:12;-1.90;99.90
35746;DHT22;21870;42.812;74.628;2022-12-24T12:56:44;-2.00;99.90
35746;DHT22;21870;42.812;74.628;2022-12-24T12:59:26;-2.10;99.90
35746;DHT22;21870;42.812;74.628;2022-12-24T13:04:58;-2.10;99.90
35746;DHT22;21870;42.812;74.628;2022-12-24T13:13:07;-2.40;99.90
35746;DHT22;21870;42.812;74.628;2022-12-24T13:21:33;-2.60;99.90
35746;DHT22;21870;42.812;74.628;2022-12-24T13:24:24;-2.60;99.90
35746;DHT22;21870;42.812;74.628;2022-12-24T13:27:18;-2.70;99.90
35746;DHT22;21870;42.812;74.628;2022-12-24T13:29:52;-2.80;99.90
35746;DHT22;21870;42.812;74.628;2022-12-24T13:35:02;-2.90;99.90
35746;DHT22;21870;42.812;74.628;2022-12-24T13:40:24;-3.00;99.90
35746;DHT22;21870;42.812;74.628;2022-12-24T13:50:49;-3.30;99.90
35746;DHT22;21870;42.812;74.628;2022-12-24T13:53:29;-3.50;99.90
35746;DHT22;21870;42.812;74.628;2022-12-24T13:56:01;-3.60;99.90
35746;DHT22;21870;42.812;74.628;2022-12-24T13:58:28;-3.50;99.90
35746;DHT22;21870;42.812;74.628;2022-12-24T14:01:07;-3.50;99.90
35746;DHT22;21870;42.812;74.628;2022-12-24T14:03:46;-3.50;99.90
35746;DHT22;21870;42.812;74.628;2022-12-24T14:06:32;-3.60;99.90
35746;DHT22;21870;42.812;74.628;2022-12-24T14:14:31;-3.70;99.90
35746;DHT22;21870;42.812;74.628;2022-12-24T14:17:00;-3.60;99.90
35746;DHT22;21870;42.812;74.628;2022-12-24T14:19:41;-3.50;99.90
35746;DHT22;21870;42.812;74.628;2022-12-24T14:22:26;-3.60;99.90
35746;DHT22;21870;42.812;74.628;2022-12-24T14:25:02;-3.60;99.90
35746;DHT22;21870;42.812;74.628;2022-12-24T14:27:32;-3.50;99.90
35746;DHT22;21870;42.812;74.628;2022-12-24T14:30:23;-3.60;99.90
35746;DHT22;21870;42.812;74.628;2022-12-24T14:32:51;-3.60;99.90
35746;DHT22;21870;42.812;74.628;2022-12-24T14:37:59;-3.80;99.90
35746;DHT22;21870;42.812;74.628;2022-12-24T14:40:34;-3.90;99.90
35746;DHT22;21870;42.812;74.628;2022-12-24T14:48:40;-4.00;99.90
35746;DHT22;21870;42.812;74.628;2022-12-24T14:51:54;-4.00;99.90
35746;DHT22;21870;42.812;74.628;2022-12-24T14:54:43;-4.00;99.90
35746;DHT22;21870;42.812;74.628;2022-12-24T14:59:58;-4.00;99.90
35746;DHT22;21870;42.812;74.628;2022-12-24T15:02:50;-4.10;99.90
35746;DHT22;21870;42.812;74.628;2022-12-24T15:05:24;-4.10;99.90
35746;DHT22;21870;42.812;74.628;2022-12-24T15:08:01;-4.10;99.90
35746;DHT22;21870;42.812;74.628;2022-12-24T15:10:39;-4.10;99.90
35746;DHT22;21870;42.812;74.628;2022-12-24T15:13:35;-4.10;99.90
35746;DHT22;21870;42.812;74.628;2022-12-24T15:16:11;-4.20;99.90
35746;DHT22;21870;42.812;74.628;2022-12-24T15:18:42;-4.30;99.90
35746;DHT22;21870;42.812;74.628;2022-12-24T15:21:16;-4.40;99.90
35746;DHT22;21870;42.812;74.628;2022-12-24T15:23:47;-4.30;99.90
35746;DHT22;21870;42.812;74.628;2022-12-24T15:26:23;-4.40;99.90
35746;DHT22;21870;42.812;74.628;2022-12-24T15:28:50;-4.40;99.90
35746;DHT22;21870;42.812;74.628;2022-12-24T15:31:19;-4.50;99.90
35746;DHT22;21870;42.812;74.628;2022-12-24T15:33:46;-4.40;99.90
35746;DHT22;21870;42.812;74.628;2022-12-24T15:36:14;-4.50;99.90
35746;DHT22;21870;42.812;74.628;2022-12-24T15:38:43;-4.50;99.90
35746;DHT22;21870;42.812;74.628;2022-12-24T15:41:22;-4.60;99.90
35746;DHT22;21870;42.812;74.628;2022-12-24T15:43:50;-4.60;99.90
35746;DHT22;21870;42.812;74.628;2022-12-24T15:46:20;-4.60;99.90
35746;DHT22;21870;42.812;74.628;2022-12-24T15:48:48;-4.60;99.90
35746;DHT22;21870;42.812;74.628;2022-12-24T15:51:25;-4.60;99.90
35746;DHT22;21870;42.812;74.628;2022-12-24T15:54:01;-4.60;99.90
35746;DHT22;21870;42.812;74.628;2022-12-24T15:56:41;-4.60;99.90
35746;DHT22;21870;42.812;74.628;2022-12-24T16:01:43;-4.90;99.90
35746;DHT22;21870;42.812;74.628;2022-12-24T16:04:16;-4.80;99.90
35746;DHT22;21870;42.812;74.628;2022-12-24T16:06:59;-5.00;99.90
35746;DHT22;21870;42.812;74.628;2022-12-24T16:12:02;-5.00;99.90
35746;DHT22;21870;42.812;74.628;2022-12-24T16:14:29;-5.00;99.90
35746;DHT22;21870;42.812;74.628;2022-12-24T16:16:56;-5.00;99.90
35746;DHT22;21870;42.812;74.628;2022-12-24T16:19:24;-5.00;99.90
35746;DHT22;21870;42.812;74.628;2022-12-24T16:21:53;-4.90;99.90
35746;DHT22;21870;42.812;74.628;2022-12-24T16:24:26;-4.90;99.90
35746;DHT22;21870;42.812;74.628;2022-12-24T16:26:53;-4.90;99.90
35746;DHT22;21870;42.812;74.628;2022-12-24T16:29:19;-4.90;99.90
35746;DHT22;21870;42.812;74.628;2022-12-24T16:31:52;-5.00;99.90
35746;DHT22;21870;42.812;74.628;2022-12-24T16:34:22;-4.90;99.90
35746;DHT22;21870;42.812;74.628;2022-12-24T16:36:49;-4.90;99.90
35746;DHT22;21870;42.812;74.628;2022-12-24T16:39:20;-4.80;99.90
35746;DHT22;21870;42.812;74.628;2022-12-24T16:41:54;-4.90;99.90
35746;DHT22;21870;42.812;74.628;2022-12-24T16:44:43;-4.80;99.90
35746;DHT22;21870;42.812;74.628;2022-12-24T16:47:30;-4.80;99.90
35746;DHT22;21870;42.812;74.628;2022-12-24T16:49:58;-4.90;99.90
35746;DHT22;21870;42.812;74.628;2022-12-24T16:52:26;-5.00;99.90
35746;DHT22;21870;42.812;74.628;2022-12-24T16:54:54;-4.90;99.90
35746;DHT22;21870;42.812;74.628;2022-12-24T16:57:22;-4.80;99.90
35746;DHT22;21870;42.812;74.628;2022-12-24T16:59:49;-4.80;99.90
35746;DHT22;21870;42.812;74.628;2022-12-24T17:02:18;-4.70;99.90
35746;DHT22;21870;42.812;74.628;2022-12-24T17:04:44;-4.60;99.90
35746;DHT22;21870;42.812;74.628;2022-12-24T17:07:12;-4.60;99.90
35746;DHT22;21870;42.812;74.628;2022-12-24T17:09:38;-4.80;99.90
35746;DHT22;21870;42.812;74.628;2022-12-24T17:12:08;-4.90;99.90
35746;DHT22;21870;42.812;74.628;2022-12-24T17:14:34;-4.90;99.90
35746;DHT22;21870;42.812;74.628;2022-12-24T17:17:01;-4.90;99.90
35746;DHT22;21870;42.812;74.628;2022-12-24T17:19:27;-4.80;99.90
35746;DHT22;21870;42.812;74.628;2022-12-24T17:21:53;-4.90;99.90
35746;DHT22;21870;42.812;74.628;2022-12-24T17:24:19;-4.90;99.90
35746;DHT22;21870;42.812;74.628;2022-12-24T17:26:45;-5.00;99.90
35746;DHT22;21870;42.812;74.628;2022-12-24T17:29:11;-5.00;99.90
35746;DHT22;21870;42.812;74.628;2022-12-24T17:31:37;-5.10;99.90